createdAt,value
2023-04-10T00:05:00.830Z,4.57
2023-04-10T00:10:06.587Z,4.53
2023-04-10T00:15:11.261Z,4.80
2023-04-10T00:20:14.704Z,4.97
2023-04-10T00:25:19.687Z,5.20
2023-04-10T00:30:23.329Z,5.10
2023-04-10T00:35:27.060Z,4.07
2023-04-10T00:40:32.164Z,4.63
2023-04-10T00:45:35.739Z,3.90
2023-04-10T00:50:39.519Z,4.30
2023-04-10T00:55:45.323Z,4.20
2023-04-10T01:00:49.226Z,4.20
2023-04-10T01:06:01.912Z,5.40
2023-04-10T01:11:14.714Z,3.90
2023-04-10T01:16:26.395Z,4.37
2023-04-10T01:21:32.690Z,4.10
2023-04-10T01:26:54.261Z,4.43
2023-04-10T01:32:03.608Z,6.07
2023-04-10T01:37:13.509Z,5.30
2023-04-10T01:42:18.139Z,5.57
2023-04-10T01:47:24.002Z,5.97
2023-04-10T01:52:29.465Z,5.23
2023-04-10T01:57:53.589Z,7.03
2023-04-10T02:02:59.677Z,6.37
2023-04-10T02:08:09.329Z,6.57
2023-04-10T02:13:17.354Z,7.17
2023-04-10T02:18:24.708Z,7.20
2023-04-10T02:23:29.883Z,6.30
2023-04-10T02:28:33.293Z,6.23
2023-04-10T02:33:38.117Z,6.33
2023-04-10T02:38:41.493Z,6.60
2023-04-10T02:43:46.121Z,5.80
2023-04-10T02:48:51.483Z,7.10
2023-04-10T02:53:55.642Z,6.53
2023-04-10T02:59:05.652Z,5.90
2023-04-10T03:04:11.982Z,6.90
2023-04-10T03:09:18.002Z,6.27
2023-04-10T03:14:21.557Z,5.97
2023-04-10T03:19:26.928Z,6.03
2023-04-10T03:24:30.699Z,6.10
2023-04-10T03:29:34.259Z,6.20
2023-04-10T03:34:39.338Z,6.33
2023-04-10T03:39:43.117Z,7.07
2023-04-10T03:44:50.086Z,9.03
2023-04-10T03:49:55.510Z,9.73
2023-04-10T03:54:59.412Z,14.30
2023-04-10T04:00:06.820Z,10.00
2023-04-10T04:05:26.134Z,9.10
2023-04-10T04:10:52.990Z,8.77
2023-04-10T04:16:11.649Z,8.60
2023-04-10T04:21:26.782Z,21.73
2023-04-10T04:27:08.970Z,11.40
2023-04-10T04:32:38.632Z,13.40
2023-04-10T04:38:02.338Z,11.80
2023-04-10T04:43:11.666Z,13.03
2023-04-10T04:48:36.618Z,12.67
2023-04-10T04:53:59.844Z,13.70
2023-04-10T04:59:15.179Z,13.10
2023-04-10T05:04:44.382Z,13.33
2023-04-10T05:10:10.189Z,20.20
2023-04-10T05:15:22.696Z,15.17
2023-04-10T05:21:01.999Z,15.63
2023-04-10T05:26:27.076Z,11.70
2023-04-10T05:31:47.229Z,11.47
2023-04-10T05:37:13.686Z,11.67
2023-04-10T05:42:35.672Z,11.63
2023-04-10T05:48:05.290Z,12.50
2023-04-10T05:53:15.791Z,12.37
2023-04-10T05:58:27.792Z,12.33
2023-04-10T06:03:54.701Z,13.03
2023-04-10T06:08:58.656Z,13.40
2023-04-10T06:14:04.164Z,13.47
2023-04-10T06:19:14.641Z,13.27
2023-04-10T06:24:18.034Z,13.20
2023-04-10T06:29:26.135Z,13.27
2023-04-10T06:34:29.869Z,13.20
2023-04-10T06:39:37.966Z,14.07
2023-04-10T06:44:43.310Z,14.20
2023-04-10T06:49:46.748Z,14.23
2023-04-10T06:54:50.322Z,14.03
2023-04-10T06:59:55.438Z,13.60
2023-04-10T07:04:59.190Z,14.03
2023-04-10T07:10:02.703Z,13.47
2023-04-10T07:15:10.228Z,12.90
2023-04-10T07:20:14.042Z,12.67
2023-04-10T07:25:18.481Z,12.90
2023-04-10T07:30:23.342Z,12.77
2023-04-10T07:35:27.191Z,13.50
2023-04-10T07:40:30.932Z,13.87
2023-04-10T07:45:35.849Z,15.50
2023-04-10T07:50:39.290Z,16.33
2023-04-10T07:55:44.875Z,15.93
2023-04-10T08:00:49.732Z,15.70
2023-04-10T08:05:53.222Z,14.83
2023-04-10T08:10:56.933Z,13.57
2023-04-10T08:16:02.011Z,17.13
2023-04-10T08:21:06.538Z,13.37
2023-04-10T08:26:09.954Z,12.20
2023-04-10T08:31:14.855Z,27.33
2023-04-10T08:36:20.099Z,16.57
2023-04-10T08:41:24.290Z,9.87
2023-04-10T08:46:32.808Z,17.90
2023-04-10T08:51:41.292Z,9.80
2023-04-10T08:56:51.243Z,13.80
2023-04-10T09:01:57.323Z,10.10
2023-04-10T09:07:01.700Z,9.40
2023-04-10T09:12:06.914Z,9.47
2023-04-10T09:17:19.547Z,8.83
2023-04-10T09:22:31.780Z,7.20
2023-04-10T09:27:37.507Z,6.70
2023-04-10T09:32:44.015Z,6.70
2023-04-10T09:37:47.995Z,5.70
2023-04-10T09:42:51.461Z,8.27
2023-04-10T09:48:07.944Z,7.87
2023-04-10T09:53:12.700Z,6.67
2023-04-10T09:58:17.421Z,5.33
2023-04-10T10:03:22.360Z,5.70
2023-04-10T10:08:26.552Z,5.50
2023-04-10T10:13:35.975Z,5.73
2023-04-10T10:18:46.934Z,5.63
2023-04-10T10:23:54.854Z,5.73
2023-04-10T10:29:00.538Z,5.03
2023-04-10T10:34:09.353Z,4.77
2023-04-10T10:39:28.481Z,4.40
2023-04-10T10:44:53.853Z,4.13
2023-04-10T10:50:00.687Z,4.10
2023-04-10T10:55:31.546Z,4.20
2023-04-10T11:01:09.159Z,4.57
2023-04-10T11:06:17.516Z,4.13
2023-04-10T11:11:23.325Z,4.10
2023-04-10T11:16:45.199Z,4.43
2023-04-10T11:22:09.534Z,4.10
2023-04-10T11:27:42.393Z,4.00
2023-04-10T11:32:50.036Z,4.00
2023-04-10T11:38:09.836Z,4.33
2023-04-10T11:43:15.061Z,4.50
2023-04-10T11:48:18.534Z,4.47
2023-04-10T11:53:23.945Z,3.60
2023-04-10T11:58:30.133Z,3.60
2023-04-10T12:03:41.779Z,4.20
2023-04-10T12:08:49.585Z,4.00
2023-04-10T12:13:55.908Z,4.00
2023-04-10T12:18:59.502Z,4.57
2023-04-10T12:24:04.404Z,4.23
2023-04-10T12:29:09.392Z,3.80
2023-04-10T12:34:19.871Z,5.03
2023-04-10T12:39:27.009Z,4.87
2023-04-10T12:44:30.909Z,4.80
2023-04-10T12:49:34.373Z,5.50
2023-04-10T12:54:39.514Z,5.57
2023-04-10T12:59:45.090Z,4.90
2023-04-10T13:04:48.616Z,5.60
2023-04-10T13:09:53.511Z,5.10
2023-04-10T13:14:56.909Z,4.80
2023-04-10T13:20:00.524Z,5.07
2023-04-10T13:25:06.000Z,5.37
2023-04-10T13:30:10.446Z,5.50
2023-04-10T13:35:13.920Z,5.20
2023-04-10T13:40:18.690Z,4.53
2023-04-10T13:45:22.141Z,4.60
2023-04-10T13:50:25.620Z,4.87
2023-04-10T13:55:30.413Z,4.97
2023-04-10T14:00:33.854Z,4.27
2023-04-10T14:05:37.424Z,4.90
2023-04-10T14:10:42.345Z,4.43
2023-04-10T14:15:46.252Z,4.20
2023-04-10T14:20:49.963Z,4.87
2023-04-10T14:25:54.754Z,4.60
2023-04-10T14:30:58.178Z,4.97
2023-04-10T14:36:01.645Z,4.70
2023-04-10T14:41:07.505Z,4.63
2023-04-10T14:46:11.289Z,4.63
2023-04-10T14:51:14.976Z,3.93
2023-04-10T14:56:19.773Z,4.73
2023-04-10T15:01:23.347Z,4.27
2023-04-10T15:06:28.125Z,5.43
2023-04-10T15:11:32.967Z,5.20
2023-04-10T15:16:36.382Z,4.40
2023-04-10T15:21:41.503Z,5.30
2023-04-10T15:26:47.474Z,5.63
2023-04-10T15:31:51.275Z,4.80
2023-04-10T15:36:54.646Z,4.57
2023-04-10T15:42:00.414Z,5.13
2023-04-10T15:47:03.809Z,4.87
2023-04-10T15:52:07.964Z,4.50
2023-04-10T15:57:12.740Z,4.00
2023-04-10T16:02:16.349Z,4.87
2023-04-10T16:07:21.808Z,5.03
2023-04-10T16:12:26.626Z,4.07
2023-04-10T16:17:30.109Z,4.27
2023-04-10T16:22:33.633Z,3.67
2023-04-10T16:27:39.605Z,4.27
2023-04-10T16:32:43.219Z,4.83
2023-04-10T16:37:46.873Z,4.20
2023-04-10T16:42:51.713Z,4.67
2023-04-10T16:47:55.270Z,4.23
2023-04-10T16:53:01.952Z,4.20
2023-04-10T16:58:07.199Z,3.70
2023-04-10T17:03:10.917Z,4.10
2023-04-10T17:08:14.759Z,4.57
2023-04-10T17:13:20.308Z,5.13
2023-04-10T17:18:24.052Z,5.03
2023-04-10T17:23:27.607Z,5.00
2023-04-10T17:28:33.129Z,5.00
2023-04-10T17:33:37.011Z,5.90
2023-04-10T17:38:41.137Z,6.70
2023-04-10T17:43:45.968Z,6.30
2023-04-10T17:48:49.457Z,6.90
2023-04-10T17:53:54.318Z,5.60
2023-04-10T17:59:00.659Z,5.43
2023-04-10T18:04:04.763Z,7.10
2023-04-10T18:09:08.329Z,7.10
2023-04-10T18:14:13.683Z,7.53
2023-04-10T18:19:18.452Z,7.93
2023-04-10T18:24:25.967Z,9.20
2023-04-10T18:29:32.910Z,8.73
2023-04-10T18:34:36.839Z,9.70
2023-04-10T18:39:41.761Z,10.40
2023-04-10T18:44:48.571Z,10.40
2023-04-10T18:49:52.603Z,11.73
2023-04-10T18:54:55.998Z,12.13
2023-04-10T19:00:00.765Z,12.30
2023-04-10T19:05:07.087Z,12.40
2023-04-10T19:10:11.698Z,14.80
2023-04-10T19:15:18.058Z,16.17
2023-04-10T19:20:51.209Z,16.03
2023-04-10T19:25:45.880Z,16.63
2023-04-10T19:30:51.043Z,15.63
2023-04-10T19:35:55.082Z,15.10
2023-04-10T19:40:58.944Z,12.67
2023-04-10T19:46:03.876Z,13.87
2023-04-10T19:51:07.986Z,14.43
2023-04-10T19:56:11.518Z,15.23
2023-04-10T20:01:16.439Z,15.47
2023-04-10T20:06:20.555Z,15.60
2023-04-10T20:11:24.826Z,15.10
2023-04-10T20:16:29.714Z,13.43
2023-04-10T20:21:34.354Z,11.03
2023-04-10T20:26:38.077Z,10.00
2023-04-10T20:31:42.939Z,10.10
2023-04-10T20:36:46.568Z,9.93
2023-04-10T20:41:49.981Z,9.40
2023-04-10T20:46:55.064Z,9.77
2023-04-10T20:51:58.855Z,10.57
2023-04-10T20:57:02.604Z,11.67
2023-04-10T21:02:08.145Z,11.30
2023-04-10T21:07:11.893Z,12.33
2023-04-10T21:12:15.283Z,12.50
2023-04-10T21:17:20.850Z,12.30
2023-04-10T21:22:24.253Z,12.33
2023-04-10T21:27:27.981Z,12.47
2023-04-10T21:32:32.897Z,12.27
2023-04-10T21:37:36.819Z,12.20
2023-04-10T21:42:40.402Z,12.70
2023-04-10T21:47:45.293Z,12.77
2023-04-10T21:52:48.799Z,13.97
2023-04-10T21:57:52.157Z,14.23
2023-04-10T22:02:57.132Z,15.57
2023-04-10T22:08:00.607Z,15.97
2023-04-10T22:13:04.084Z,14.33
2023-04-10T22:18:09.225Z,13.97
2023-04-10T22:23:12.630Z,13.77
2023-04-10T22:28:16.102Z,14.27
2023-04-10T22:33:20.970Z,12.93
2023-04-10T22:38:24.443Z,13.63
2023-04-10T22:43:28.008Z,14.33
2023-04-10T22:48:33.372Z,14.13
2023-04-10T22:53:36.844Z,14.47
2023-04-10T22:58:41.930Z,14.33
2023-04-10T23:03:46.773Z,14.33
2023-04-10T23:08:50.139Z,16.03
2023-04-10T23:13:53.608Z,14.33
2023-04-10T23:18:58.411Z,14.90
2023-04-10T23:24:01.804Z,16.20
2023-04-10T23:29:05.237Z,14.63
2023-04-10T23:34:10.057Z,15.03
2023-04-10T23:39:13.750Z,16.37
2023-04-10T23:44:17.104Z,15.03
2023-04-10T23:49:21.882Z,15.87
2023-04-10T23:54:25.555Z,14.87
2023-04-10T23:59:28.959Z,14.93
